Webcam  Webcam


Thunder radar more information blitzortung!


Rain radar more information rain snow radar



Nearby METAR Reports

   
EHVK - Volkel Rnlafb, Netherlands
Distance from station: SW 18 km
Updated: 24-01-2021 06:25
Light Rain, Overcast  
Light Rain, Overcast  
   Wind: West 3.1 m/s
Wind: West 3.1 m/s
Temperature: 2°C
Wind Chill: -1°C
Dew Point: 1°C
Humidity: 93%
Barometer: 996 hPa
Clouds: Overcast
Visibility: 8 km
Cloud details: Mostly Cloudy 600 ft,
Overcast 800 ft
EHVK 240525Z AUTO 28006KT 250V310 8000 -RA BKN006 OVC008 02/01 Q0996 YLO
EDLV - Niederrhein, Germany
Distance from station: SE 25 km
Updated: 24-01-2021 06:20
Mist, Overcast  
Mist, Overcast  
   Wind: WNW 2.6 m/s
Wind: WNW 2.6 m/s
Temperature: 1°C
Wind Chill: -2°C
Dew Point: 0°C
Humidity: 93%
Barometer: 996 hPa
Clouds: Overcast
Visibility: 4 km
Cloud details: Overcast 300 ft
EDLV 240520Z 29005KT 3500 BR OVC003 01/M00 Q0996
EHDL - Deelen Rnlafb, Netherlands
Distance from station: N 35 km
Updated: 24-01-2021 06:25
Mist, Overcast  
Mist, Overcast  
   Wind: WNW 2.1 m/s
Wind: WNW 2.1 m/s
Temperature: 1°C
Wind Chill: -1°C
Dew Point: 1°C
Humidity: 100%
Barometer: 995 hPa
Clouds: Overcast
Visibility: 6 km
Cloud details: Partly Cloudy 7000 ft,
Overcast 7500 ft
EHDL 240525Z AUTO 29004KT 260V330 6000 BR SCT070 OVC075 01/01 Q0995 WHT
EHEH - Eindhoven Rnlafb, Netherlands
Distance from station: SW 48 km
Updated: 24-01-2021 06:25
Mostly Cloudy  
Mostly Cloudy  
   Wind: West 3.1 m/s
Wind: West 3.1 m/s
Temperature: 1°C
Wind Chill: -2°C
Dew Point: 1°C
Humidity: 100%
Barometer: 996 hPa
Clouds: Mostly Cloudy
Visibility: More than 10 km
Cloud details: Partly Cloudy 600 ft,
Mostly Cloudy 800 ft,
Mostly Cloudy 900 ft
EHEH 240525Z AUTO 28006KT 240V320 9999 SCT006 BKN008 BKN009 01/01 Q0996 YLO TEMPO 4000 -SHRASN FEW004 SCT006 BKN015 SCT018CB
EHGR - Gilze-Rijen Rnla, Netherlands
Distance from station: WSW 70 km
Updated: 24-01-2021 06:25
Overcast  
Overcast  
   Wind: West 3.1 m/s
Wind: West 3.1 m/s
Temperature: 1°C
Wind Chill: -2°C
Dew Point: 1°C
Humidity: 100%
Barometer: 997 hPa
Clouds: Overcast
Visibility: More than 10 km
Cloud details: Partly Cloudy 400 ft,
Overcast 10000 ft
EHGR 240525Z AUTO 28006KT 9999 SCT004 OVC100 01/01 Q0997 YLO
EBBL - Kleine-Brogel(Ba, Belgium
Distance from station: SSW 71 km
Updated: 20-01-2021 19:55
NOT Current
Mostly Cloudy  
Mostly Cloudy  
   Wind: South 2.6 m/s
Wind: South 2.6 m/s
Temperature: 9°C
Wind Chill: 8°C
Dew Point: 2°C
Humidity: 62%
Barometer: 994 hPa
Clouds: Mostly Cloudy
Visibility: More than 10 km
Cloud details: Partly Cloudy 14000 ft,
Mostly Cloudy 23000 ft
EBBL 201855Z AUTO 18005KT 9999 SCT140/// BKN230/// 09/02 Q0994 BLU

Script developed by  Saratoga-weather.org Adapted for the template by  Weerstation Leuven

You find our weather info also at:

UK Metoffice

European Weather Network

WeatherCloud

Weather Underground

AWEKAS

Citizen Weather Observer Program (CWOP)

HAMweather, WeatherForYou, PWS Weather

Equipment we use:

Weather-station
Davis VP2

Weather-program
Meteobridge

Weather-server
Meteobridge Pro

Davis VP2

Meteobridge

Meteobridge Pro